sensor_id;sensor_type;location;lat;lon;timestamp;P1;durP1;ratioP1;P2;durP2;ratioP2
72427;SDS011;60419;48.880;18.036;2023-05-13T00:02:13;8.63;;;6.45;;
72427;SDS011;60419;48.880;18.036;2023-05-13T00:04:59;9.32;;;7.13;;
72427;SDS011;60419;48.880;18.036;2023-05-13T00:07:44;8.18;;;6.72;;
72427;SDS011;60419;48.880;18.036;2023-05-13T00:10:30;9.93;;;6.50;;
72427;SDS011;60419;48.880;18.036;2023-05-13T00:13:15;9.82;;;6.90;;
72427;SDS011;60419;48.880;18.036;2023-05-13T00:16:01;11.90;;;6.78;;
72427;SDS011;60419;48.880;18.036;2023-05-13T00:18:46;9.40;;;6.35;;
72427;SDS011;60419;48.880;18.036;2023-05-13T00:21:32;9.63;;;6.82;;
72427;SDS011;60419;48.880;18.036;2023-05-13T00:24:17;10.75;;;7.35;;
72427;SDS011;60419;48.880;18.036;2023-05-13T00:27:03;9.50;;;7.03;;
72427;SDS011;60419;48.880;18.036;2023-05-13T00:29:48;10.88;;;7.80;;
72427;SDS011;60419;48.880;18.036;2023-05-13T00:32:34;11.48;;;7.35;;
72427;SDS011;60419;48.880;18.036;2023-05-13T00:35:19;11.23;;;8.18;;
72427;SDS011;60419;48.880;18.036;2023-05-13T00:38:05;10.30;;;8.05;;
72427;SDS011;60419;48.880;18.036;2023-05-13T00:40:50;9.88;;;7.95;;
72427;SDS011;60419;48.880;18.036;2023-05-13T00:43:36;12.02;;;8.63;;
72427;SDS011;60419;48.880;18.036;2023-05-13T00:46:22;11.15;;;7.97;;
72427;SDS011;60419;48.880;18.036;2023-05-13T00:49:08;11.43;;;8.23;;
72427;SDS011;60419;48.880;18.036;2023-05-13T00:51:53;10.57;;;8.43;;
72427;SDS011;60419;48.880;18.036;2023-05-13T00:54:39;13.63;;;8.93;;
72427;SDS011;60419;48.880;18.036;2023-05-13T00:57:24;11.23;;;8.63;;
72427;SDS011;60419;48.880;18.036;2023-05-13T01:00:10;11.07;;;8.10;;
72427;SDS011;60419;48.880;18.036;2023-05-13T01:03:05;13.20;;;9.07;;
72427;SDS011;60419;48.880;18.036;2023-05-13T01:06:09;38.90;;;17.95;;
72427;SDS011;60419;48.880;18.036;2023-05-13T01:09:02;50.13;;;22.90;;
72427;SDS011;60419;48.880;18.036;2023-05-13T01:11:52;35.95;;;18.00;;
72427;SDS011;60419;48.880;18.036;2023-05-13T01:14:41;24.63;;;13.40;;
72427;SDS011;60419;48.880;18.036;2023-05-13T01:17:36;12.23;;;8.07;;
72427;SDS011;60419;48.880;18.036;2023-05-13T01:20:26;14.98;;;8.82;;
72427;SDS011;60419;48.880;18.036;2023-05-13T01:23:12;10.25;;;7.00;;
72427;SDS011;60419;48.880;18.036;2023-05-13T01:25:57;7.90;;;5.05;;
72427;SDS011;60419;48.880;18.036;2023-05-13T01:28:43;5.30;;;3.67;;
72427;SDS011;60419;48.880;18.036;2023-05-13T01:31:28;4.93;;;3.13;;
72427;SDS011;60419;48.880;18.036;2023-05-13T01:34:14;5.93;;;3.60;;
72427;SDS011;60419;48.880;18.036;2023-05-13T01:37:01;6.22;;;3.90;;
72427;SDS011;60419;48.880;18.036;2023-05-13T01:39:47;4.10;;;2.88;;
72427;SDS011;60419;48.880;18.036;2023-05-13T01:42:33;4.10;;;2.92;;
72427;SDS011;60419;48.880;18.036;2023-05-13T01:45:19;4.07;;;2.63;;
72427;SDS011;60419;48.880;18.036;2023-05-13T01:48:04;4.53;;;2.67;;
72427;SDS011;60419;48.880;18.036;2023-05-13T01:50:50;4.30;;;2.38;;
72427;SDS011;60419;48.880;18.036;2023-05-13T01:53:36;4.35;;;2.40;;
72427;SDS011;60419;48.880;18.036;2023-05-13T01:56:21;3.53;;;2.40;;
72427;SDS011;60419;48.880;18.036;2023-05-13T01:59:08;3.35;;;2.17;;
72427;SDS011;60419;48.880;18.036;2023-05-13T02:01:55;3.85;;;2.45;;
72427;SDS011;60419;48.880;18.036;2023-05-13T02:04:40;4.18;;;2.70;;
72427;SDS011;60419;48.880;18.036;2023-05-13T02:07:25;6.35;;;4.32;;
72427;SDS011;60419;48.880;18.036;2023-05-13T02:10:11;6.32;;;4.13;;
72427;SDS011;60419;48.880;18.036;2023-05-13T02:12:56;5.25;;;3.60;;
72427;SDS011;60419;48.880;18.036;2023-05-13T02:15:42;6.88;;;4.32;;
72427;SDS011;60419;48.880;18.036;2023-05-13T02:18:28;6.00;;;4.35;;
72427;SDS011;60419;48.880;18.036;2023-05-13T02:21:13;6.20;;;4.15;;
72427;SDS011;60419;48.880;18.036;2023-05-13T02:23:58;7.70;;;4.97;;
72427;SDS011;60419;48.880;18.036;2023-05-13T02:26:45;5.88;;;4.22;;
72427;SDS011;60419;48.880;18.036;2023-05-13T02:29:30;5.93;;;4.45;;
72427;SDS011;60419;48.880;18.036;2023-05-13T02:32:15;7.80;;;5.03;;
72427;SDS011;60419;48.880;18.036;2023-05-13T02:35:01;7.45;;;4.97;;
72427;SDS011;60419;48.880;18.036;2023-05-13T02:37:46;7.95;;;4.80;;
72427;SDS011;60419;48.880;18.036;2023-05-13T02:40:32;6.38;;;4.57;;
72427;SDS011;60419;48.880;18.036;2023-05-13T02:43:18;6.88;;;4.32;;
72427;SDS011;60419;48.880;18.036;2023-05-13T02:46:03;6.38;;;4.05;;
72427;SDS011;60419;48.880;18.036;2023-05-13T02:48:48;5.90;;;3.60;;
72427;SDS011;60419;48.880;18.036;2023-05-13T02:51:34;5.22;;;3.80;;
72427;SDS011;60419;48.880;18.036;2023-05-13T02:54:19;6.97;;;3.80;;
72427;SDS011;60419;48.880;18.036;2023-05-13T02:57:05;6.60;;;4.40;;
72427;SDS011;60419;48.880;18.036;2023-05-13T02:59:50;5.93;;;4.35;;
72427;SDS011;60419;48.880;18.036;2023-05-13T03:02:36;5.18;;;3.55;;
72427;SDS011;60419;48.880;18.036;2023-05-13T03:05:21;5.20;;;3.47;;
72427;SDS011;60419;48.880;18.036;2023-05-13T03:08:07;6.75;;;3.55;;
72427;SDS011;60419;48.880;18.036;2023-05-13T03:10:52;4.57;;;2.92;;
72427;SDS011;60419;48.880;18.036;2023-05-13T03:13:37;4.20;;;2.92;;
72427;SDS011;60419;48.880;18.036;2023-05-13T03:16:23;4.63;;;3.20;;
72427;SDS011;60419;48.880;18.036;2023-05-13T03:19:08;4.47;;;2.83;;
72427;SDS011;60419;48.880;18.036;2023-05-13T03:21:54;5.28;;;2.97;;
72427;SDS011;60419;48.880;18.036;2023-05-13T03:24:39;4.55;;;2.67;;
72427;SDS011;60419;48.880;18.036;2023-05-13T03:27:26;4.22;;;2.88;;
72427;SDS011;60419;48.880;18.036;2023-05-13T03:30:12;5.75;;;3.08;;
72427;SDS011;60419;48.880;18.036;2023-05-13T03:32:58;4.53;;;2.88;;
72427;SDS011;60419;48.880;18.036;2023-05-13T03:35:43;4.07;;;2.58;;
72427;SDS011;60419;48.880;18.036;2023-05-13T03:38:29;5.88;;;3.10;;
72427;SDS011;60419;48.880;18.036;2023-05-13T03:41:15;5.80;;;2.83;;
72427;SDS011;60419;48.880;18.036;2023-05-13T03:44:01;5.13;;;2.70;;
72427;SDS011;60419;48.880;18.036;2023-05-13T03:46:46;4.75;;;3.10;;
72427;SDS011;60419;48.880;18.036;2023-05-13T03:49:32;5.05;;;3.35;;
72427;SDS011;60419;48.880;18.036;2023-05-13T03:52:17;6.25;;;4.18;;
72427;SDS011;60419;48.880;18.036;2023-05-13T03:55:03;8.27;;;3.95;;
72427;SDS011;60419;48.880;18.036;2023-05-13T03:57:49;6.70;;;4.38;;
72427;SDS011;60419;48.880;18.036;2023-05-13T04:00:34;5.65;;;4.15;;
72427;SDS011;60419;48.880;18.036;2023-05-13T04:03:20;5.50;;;4.10;;
72427;SDS011;60419;48.880;18.036;2023-05-13T04:06:05;6.93;;;4.57;;
72427;SDS011;60419;48.880;18.036;2023-05-13T04:08:51;5.80;;;4.20;;
72427;SDS011;60419;48.880;18.036;2023-05-13T04:11:36;6.30;;;4.47;;
72427;SDS011;60419;48.880;18.036;2023-05-13T04:14:21;7.63;;;4.18;;
72427;SDS011;60419;48.880;18.036;2023-05-13T04:17:07;5.65;;;4.43;;
72427;SDS011;60419;48.880;18.036;2023-05-13T04:19:52;6.15;;;4.25;;
72427;SDS011;60419;48.880;18.036;2023-05-13T04:22:38;8.95;;;4.32;;
72427;SDS011;60419;48.880;18.036;2023-05-13T04:25:24;5.97;;;4.50;;
72427;SDS011;60419;48.880;18.036;2023-05-13T04:28:09;6.78;;;4.40;;
72427;SDS011;60419;48.880;18.036;2023-05-13T04:30:54;10.05;;;5.03;;
72427;SDS011;60419;48.880;18.036;2023-05-13T04:33:40;7.80;;;5.13;;
72427;SDS011;60419;48.880;18.036;2023-05-13T04:36:25;6.35;;;4.78;;
72427;SDS011;60419;48.880;18.036;2023-05-13T04:39:10;6.65;;;4.90;;
72427;SDS011;60419;48.880;18.036;2023-05-13T04:41:56;6.85;;;4.72;;
72427;SDS011;60419;48.880;18.036;2023-05-13T04:44:42;7.45;;;4.90;;
72427;SDS011;60419;48.880;18.036;2023-05-13T04:47:27;8.13;;;5.10;;
72427;SDS011;60419;48.880;18.036;2023-05-13T04:50:13;9.18;;;5.20;;
72427;SDS011;60419;48.880;18.036;2023-05-13T04:52:58;7.95;;;5.15;;
72427;SDS011;60419;48.880;18.036;2023-05-13T04:55:45;7.18;;;5.28;;
72427;SDS011;60419;48.880;18.036;2023-05-13T04:58:32;8.27;;;5.63;;
72427;SDS011;60419;48.880;18.036;2023-05-13T05:01:17;7.10;;;5.13;;
72427;SDS011;60419;48.880;18.036;2023-05-13T05:04:03;7.78;;;5.07;;
72427;SDS011;60419;48.880;18.036;2023-05-13T05:06:49;6.75;;;5.30;;
72427;SDS011;60419;48.880;18.036;2023-05-13T05:09:34;8.00;;;5.35;;
72427;SDS011;60419;48.880;18.036;2023-05-13T05:12:20;7.72;;;5.15;;
72427;SDS011;60419;48.880;18.036;2023-05-13T05:15:05;7.72;;;5.18;;
72427;SDS011;60419;48.880;18.036;2023-05-13T05:17:59;9.43;;;5.45;;
72427;SDS011;60419;48.880;18.036;2023-05-13T05:20:44;7.70;;;5.38;;
72427;SDS011;60419;48.880;18.036;2023-05-13T05:23:30;7.68;;;5.47;;
72427;SDS011;60419;48.880;18.036;2023-05-13T05:26:15;7.80;;;5.18;;
72427;SDS011;60419;48.880;18.036;2023-05-13T05:29:01;6.43;;;5.20;;
72427;SDS011;60419;48.880;18.036;2023-05-13T05:31:46;7.53;;;5.32;;
72427;SDS011;60419;48.880;18.036;2023-05-13T05:34:32;7.82;;;5.80;;
72427;SDS011;60419;48.880;18.036;2023-05-13T05:37:17;9.55;;;6.10;;
72427;SDS011;60419;48.880;18.036;2023-05-13T05:40:03;9.35;;;6.40;;
72427;SDS011;60419;48.880;18.036;2023-05-13T05:42:48;11.93;;;8.40;;
72427;SDS011;60419;48.880;18.036;2023-05-13T05:45:34;14.57;;;9.38;;
72427;SDS011;60419;48.880;18.036;2023-05-13T05:48:20;12.68;;;9.30;;
72427;SDS011;60419;48.880;18.036;2023-05-13T05:51:05;11.57;;;8.23;;
72427;SDS011;60419;48.880;18.036;2023-05-13T05:53:50;13.10;;;8.32;;
72427;SDS011;60419;48.880;18.036;2023-05-13T05:56:36;14.55;;;8.40;;
72427;SDS011;60419;48.880;18.036;2023-05-13T05:59:21;11.13;;;7.90;;
72427;SDS011;60419;48.880;18.036;2023-05-13T06:02:06;12.52;;;7.25;;
72427;SDS011;60419;48.880;18.036;2023-05-13T06:04:52;11.80;;;8.02;;
72427;SDS011;60419;48.880;18.036;2023-05-13T06:07:37;11.27;;;7.22;;
72427;SDS011;60419;48.880;18.036;2023-05-13T06:10:23;11.07;;;7.10;;
72427;SDS011;60419;48.880;18.036;2023-05-13T06:13:08;9.60;;;7.30;;
72427;SDS011;60419;48.880;18.036;2023-05-13T06:15:53;12.30;;;7.38;;
72427;SDS011;60419;48.880;18.036;2023-05-13T06:18:39;11.15;;;8.18;;
72427;SDS011;60419;48.880;18.036;2023-05-13T06:21:24;9.00;;;6.40;;
72427;SDS011;60419;48.880;18.036;2023-05-13T06:24:10;10.57;;;7.30;;
72427;SDS011;60419;48.880;18.036;2023-05-13T06:26:55;9.35;;;6.20;;
72427;SDS011;60419;48.880;18.036;2023-05-13T06:29:40;10.82;;;6.40;;
72427;SDS011;60419;48.880;18.036;2023-05-13T06:32:26;8.93;;;6.72;;
72427;SDS011;60419;48.880;18.036;2023-05-13T06:35:11;10.38;;;6.57;;
72427;SDS011;60419;48.880;18.036;2023-05-13T06:37:56;7.35;;;5.50;;
72427;SDS011;60419;48.880;18.036;2023-05-13T06:40:42;9.85;;;5.45;;
72427;SDS011;60419;48.880;18.036;2023-05-13T06:43:29;7.28;;;5.13;;
72427;SDS011;60419;48.880;18.036;2023-05-13T06:46:14;8.35;;;4.90;;
72427;SDS011;60419;48.880;18.036;2023-05-13T06:48:59;7.53;;;4.47;;
72427;SDS011;60419;48.880;18.036;2023-05-13T06:51:45;6.35;;;4.10;;
72427;SDS011;60419;48.880;18.036;2023-05-13T06:54:30;7.38;;;5.10;;
72427;SDS011;60419;48.880;18.036;2023-05-13T06:57:16;7.50;;;4.30;;
72427;SDS011;60419;48.880;18.036;2023-05-13T07:00:02;7.10;;;4.25;;
72427;SDS011;60419;48.880;18.036;2023-05-13T07:02:47;7.82;;;4.50;;
72427;SDS011;60419;48.880;18.036;2023-05-13T07:05:33;9.35;;;4.97;;
72427;SDS011;60419;48.880;18.036;2023-05-13T07:08:19;5.78;;;3.70;;
72427;SDS011;60419;48.880;18.036;2023-05-13T07:11:05;7.38;;;4.07;;
72427;SDS011;60419;48.880;18.036;2023-05-13T07:13:50;6.07;;;3.83;;
72427;SDS011;60419;48.880;18.036;2023-05-13T07:16:36;6.28;;;4.00;;
72427;SDS011;60419;48.880;18.036;2023-05-13T07:19:21;9.40;;;4.57;;
72427;SDS011;60419;48.880;18.036;2023-05-13T07:22:06;4.70;;;2.95;;
72427;SDS011;60419;48.880;18.036;2023-05-13T07:24:52;4.40;;;1.80;;
72427;SDS011;60419;48.880;18.036;2023-05-13T07:27:37;5.43;;;2.22;;
72427;SDS011;60419;48.880;18.036;2023-05-13T07:30:23;4.18;;;2.72;;
72427;SDS011;60419;48.880;18.036;2023-05-13T07:33:08;4.68;;;2.72;;
72427;SDS011;60419;48.880;18.036;2023-05-13T07:35:53;4.68;;;2.38;;
72427;SDS011;60419;48.880;18.036;2023-05-13T07:38:39;4.72;;;2.33;;
72427;SDS011;60419;48.880;18.036;2023-05-13T07:41:24;4.47;;;2.65;;
72427;SDS011;60419;48.880;18.036;2023-05-13T07:44:11;5.05;;;2.30;;
72427;SDS011;60419;48.880;18.036;2023-05-13T07:46:57;3.17;;;1.88;;
72427;SDS011;60419;48.880;18.036;2023-05-13T07:49:42;2.97;;;1.83;;
72427;SDS011;60419;48.880;18.036;2023-05-13T07:52:27;3.47;;;1.83;;
72427;SDS011;60419;48.880;18.036;2023-05-13T07:55:14;4.63;;;1.95;;
72427;SDS011;60419;48.880;18.036;2023-05-13T07:57:59;5.03;;;1.95;;
72427;SDS011;60419;48.880;18.036;2023-05-13T08:00:45;5.13;;;1.80;;
72427;SDS011;60419;48.880;18.036;2023-05-13T08:03:30;4.03;;;1.70;;
72427;SDS011;60419;48.880;18.036;2023-05-13T08:06:16;4.88;;;1.50;;
72427;SDS011;60419;48.880;18.036;2023-05-13T08:09:01;2.92;;;1.80;;
72427;SDS011;60419;48.880;18.036;2023-05-13T08:11:46;4.45;;;2.13;;
72427;SDS011;60419;48.880;18.036;2023-05-13T08:14:32;4.10;;;2.10;;
72427;SDS011;60419;48.880;18.036;2023-05-13T08:17:17;3.47;;;1.77;;
72427;SDS011;60419;48.880;18.036;2023-05-13T08:20:03;3.88;;;1.70;;
72427;SDS011;60419;48.880;18.036;2023-05-13T08:22:49;2.95;;;1.90;;
72427;SDS011;60419;48.880;18.036;2023-05-13T08:25:34;4.45;;;2.03;;
72427;SDS011;60419;48.880;18.036;2023-05-13T08:28:20;4.28;;;1.83;;
72427;SDS011;60419;48.880;18.036;2023-05-13T08:31:05;3.50;;;1.67;;
72427;SDS011;60419;48.880;18.036;2023-05-13T08:33:54;4.70;;;2.30;;
72427;SDS011;60419;48.880;18.036;2023-05-13T08:36:39;4.88;;;1.92;;
72427;SDS011;60419;48.880;18.036;2023-05-13T08:39:25;3.80;;;1.80;;
72427;SDS011;60419;48.880;18.036;2023-05-13T08:42:10;4.03;;;2.08;;
72427;SDS011;60419;48.880;18.036;2023-05-13T08:44:56;4.97;;;1.83;;
72427;SDS011;60419;48.880;18.036;2023-05-13T08:50:40;3.88;;;1.98;;
72427;SDS011;60419;48.880;18.036;2023-05-13T08:53:26;2.90;;;1.70;;
72427;SDS011;60419;48.880;18.036;2023-05-13T08:56:12;3.55;;;1.60;;
72427;SDS011;60419;48.880;18.036;2023-05-13T08:58:57;4.78;;;2.05;;
72427;SDS011;60419;48.880;18.036;2023-05-13T09:01:43;4.07;;;1.90;;
72427;SDS011;60419;48.880;18.036;2023-05-13T09:04:29;3.97;;;1.77;;
72427;SDS011;60419;48.880;18.036;2023-05-13T09:07:15;3.22;;;1.65;;
72427;SDS011;60419;48.880;18.036;2023-05-13T09:10:02;3.42;;;1.80;;
72427;SDS011;60419;48.880;18.036;2023-05-13T09:15:34;2.65;;;1.50;;
72427;SDS011;60419;48.880;18.036;2023-05-13T09:18:19;3.47;;;1.40;;
72427;SDS011;60419;48.880;18.036;2023-05-13T09:21:20;2.17;;;1.40;;
72427;SDS011;60419;48.880;18.036;2023-05-13T09:24:09;2.75;;;1.40;;
72427;SDS011;60419;48.880;18.036;2023-05-13T09:26:57;4.15;;;1.50;;
72427;SDS011;60419;48.880;18.036;2023-05-13T09:29:42;3.60;;;1.58;;
72427;SDS011;60419;48.880;18.036;2023-05-13T09:32:28;3.05;;;1.70;;
72427;SDS011;60419;48.880;18.036;2023-05-13T09:35:14;3.63;;;1.58;;
72427;SDS011;60419;48.880;18.036;2023-05-13T09:41:01;2.42;;;1.50;;
72427;SDS011;60419;48.880;18.036;2023-05-13T09:43:47;4.80;;;1.50;;
72427;SDS011;60419;48.880;18.036;2023-05-13T09:46:32;2.50;;;1.40;;
72427;SDS011;60419;48.880;18.036;2023-05-13T09:49:22;3.97;;;1.80;;
72427;SDS011;60419;48.880;18.036;2023-05-13T09:52:10;3.60;;;1.70;;
72427;SDS011;60419;48.880;18.036;2023-05-13T09:54:59;3.95;;;1.92;;
72427;SDS011;60419;48.880;18.036;2023-05-13T09:57:45;3.58;;;1.63;;
72427;SDS011;60419;48.880;18.036;2023-05-13T10:00:31;3.90;;;1.65;;
72427;SDS011;60419;48.880;18.036;2023-05-13T10:03:16;2.83;;;1.80;;
72427;SDS011;60419;48.880;18.036;2023-05-13T10:06:02;3.17;;;1.88;;
72427;SDS011;60419;48.880;18.036;2023-05-13T10:08:49;2.65;;;1.70;;
72427;SDS011;60419;48.880;18.036;2023-05-13T10:11:36;4.45;;;1.92;;
72427;SDS011;60419;48.880;18.036;2023-05-13T10:14:21;6.28;;;1.83;;
72427;SDS011;60419;48.880;18.036;2023-05-13T10:17:08;4.97;;;1.83;;
72427;SDS011;60419;48.880;18.036;2023-05-13T10:19:54;5.38;;;1.90;;
72427;SDS011;60419;48.880;18.036;2023-05-13T10:22:39;3.80;;;1.55;;
72427;SDS011;60419;48.880;18.036;2023-05-13T10:25:25;3.95;;;1.90;;
72427;SDS011;60419;48.880;18.036;2023-05-13T10:28:11;3.90;;;1.65;;
72427;SDS011;60419;48.880;18.036;2023-05-13T10:30:58;3.60;;;1.85;;
72427;SDS011;60419;48.880;18.036;2023-05-13T10:33:43;3.30;;;1.70;;
72427;SDS011;60419;48.880;18.036;2023-05-13T10:36:36;3.13;;;1.73;;
72427;SDS011;60419;48.880;18.036;2023-05-13T10:43:16;4.38;;;1.92;;
72427;SDS011;60419;48.880;18.036;2023-05-13T10:48:50;4.20;;;1.60;;
72427;SDS011;60419;48.880;18.036;2023-05-13T10:51:43;4.10;;;1.70;;
72427;SDS011;60419;48.880;18.036;2023-05-13T10:54:37;3.85;;;1.65;;
72427;SDS011;60419;48.880;18.036;2023-05-13T10:57:35;3.05;;;1.60;;
72427;SDS011;60419;48.880;18.036;2023-05-13T11:00:23;3.03;;;1.80;;
72427;SDS011;60419;48.880;18.036;2023-05-13T11:03:35;2.67;;;1.80;;
72427;SDS011;60419;48.880;18.036;2023-05-13T11:06:21;3.50;;;1.77;;
72427;SDS011;60419;48.880;18.036;2023-05-13T11:12:05;4.70;;;2.80;;
72427;SDS011;60419;48.880;18.036;2023-05-13T11:14:54;6.70;;;2.78;;
72427;SDS011;60419;48.880;18.036;2023-05-13T11:17:40;4.40;;;2.80;;
72427;SDS011;60419;48.880;18.036;2023-05-13T11:20:29;4.40;;;2.90;;
72427;SDS011;60419;48.880;18.036;2023-05-13T11:23:15;6.15;;;2.88;;
72427;SDS011;60419;48.880;18.036;2023-05-13T11:26:11;4.35;;;2.53;;
72427;SDS011;60419;48.880;18.036;2023-05-13T11:29:06;5.10;;;2.30;;
72427;SDS011;60419;48.880;18.036;2023-05-13T11:31:52;4.35;;;2.60;;
72427;SDS011;60419;48.880;18.036;2023-05-13T11:34:48;6.25;;;2.78;;
72427;SDS011;60419;48.880;18.036;2023-05-13T11:37:41;5.05;;;2.20;;
72427;SDS011;60419;48.880;18.036;2023-05-13T11:40:30;4.07;;;2.35;;
72427;SDS011;60419;48.880;18.036;2023-05-13T11:43:20;4.18;;;2.05;;
72427;SDS011;60419;48.880;18.036;2023-05-13T11:46:07;5.00;;;2.47;;
72427;SDS011;60419;48.880;18.036;2023-05-13T11:48:54;5.45;;;2.30;;
72427;SDS011;60419;48.880;18.036;2023-05-13T11:51:39;5.53;;;2.25;;
72427;SDS011;60419;48.880;18.036;2023-05-13T11:54:25;3.80;;;2.40;;
72427;SDS011;60419;48.880;18.036;2023-05-13T11:57:27;3.10;;;1.90;;
72427;SDS011;60419;48.880;18.036;2023-05-13T12:00:16;4.55;;;2.42;;
72427;SDS011;60419;48.880;18.036;2023-05-13T12:03:08;8.07;;;2.10;;
72427;SDS011;60419;48.880;18.036;2023-05-13T12:06:01;3.92;;;1.92;;
72427;SDS011;60419;48.880;18.036;2023-05-13T12:08:47;3.22;;;2.20;;
72427;SDS011;60419;48.880;18.036;2023-05-13T12:11:32;3.60;;;1.77;;
72427;SDS011;60419;48.880;18.036;2023-05-13T12:14:19;3.72;;;1.98;;
72427;SDS011;60419;48.880;18.036;2023-05-13T12:17:05;25.48;;;11.23;;
72427;SDS011;60419;48.880;18.036;2023-05-13T12:22:55;3.20;;;1.98;;
72427;SDS011;60419;48.880;18.036;2023-05-13T12:25:42;4.03;;;1.60;;
72427;SDS011;60419;48.880;18.036;2023-05-13T12:28:31;4.47;;;1.80;;
72427;SDS011;60419;48.880;18.036;2023-05-13T12:31:17;2.88;;;1.90;;
72427;SDS011;60419;48.880;18.036;2023-05-13T12:34:02;2.63;;;1.52;;
72427;SDS011;60419;48.880;18.036;2023-05-13T12:36:50;3.55;;;1.50;;
72427;SDS011;60419;48.880;18.036;2023-05-13T12:39:35;3.03;;;1.50;;
72427;SDS011;60419;48.880;18.036;2023-05-13T12:42:21;3.10;;;1.63;;
72427;SDS011;60419;48.880;18.036;2023-05-13T12:45:07;3.00;;;1.80;;
72427;SDS011;60419;48.880;18.036;2023-05-13T12:47:53;3.42;;;1.90;;
72427;SDS011;60419;48.880;18.036;2023-05-13T12:50:39;5.47;;;1.60;;
72427;SDS011;60419;48.880;18.036;2023-05-13T12:53:24;4.95;;;1.73;;
72427;SDS011;60419;48.880;18.036;2023-05-13T12:56:10;3.05;;;1.63;;
72427;SDS011;60419;48.880;18.036;2023-05-13T12:58:55;3.08;;;1.77;;
72427;SDS011;60419;48.880;18.036;2023-05-13T13:01:41;3.33;;;1.70;;
72427;SDS011;60419;48.880;18.036;2023-05-13T13:04:26;3.00;;;1.58;;
72427;SDS011;60419;48.880;18.036;2023-05-13T13:07:11;3.75;;;1.60;;
72427;SDS011;60419;48.880;18.036;2023-05-13T13:09:58;3.30;;;1.92;;
72427;SDS011;60419;48.880;18.036;2023-05-13T13:12:43;4.35;;;1.85;;
72427;SDS011;60419;48.880;18.036;2023-05-13T13:15:29;2.85;;;1.70;;
72427;SDS011;60419;48.880;18.036;2023-05-13T13:18:14;3.03;;;1.42;;
72427;SDS011;60419;48.880;18.036;2023-05-13T13:21:00;3.13;;;1.48;;
72427;SDS011;60419;48.880;18.036;2023-05-13T13:23:45;3.03;;;1.50;;
72427;SDS011;60419;48.880;18.036;2023-05-13T13:26:30;2.75;;;1.70;;
72427;SDS011;60419;48.880;18.036;2023-05-13T13:29:16;2.60;;;1.63;;
72427;SDS011;60419;48.880;18.036;2023-05-13T13:32:01;3.60;;;1.60;;
72427;SDS011;60419;48.880;18.036;2023-05-13T13:34:47;3.28;;;1.60;;
72427;SDS011;60419;48.880;18.036;2023-05-13T13:37:32;2.35;;;1.50;;
72427;SDS011;60419;48.880;18.036;2023-05-13T13:40:17;2.33;;;1.45;;
72427;SDS011;60419;48.880;18.036;2023-05-13T13:43:07;3.33;;;1.42;;
72427;SDS011;60419;48.880;18.036;2023-05-13T13:45:52;3.95;;;1.67;;
72427;SDS011;60419;48.880;18.036;2023-05-13T13:48:38;4.25;;;1.70;;
72427;SDS011;60419;48.880;18.036;2023-05-13T13:51:23;3.45;;;1.35;;
72427;SDS011;60419;48.880;18.036;2023-05-13T13:54:08;3.72;;;1.80;;
72427;SDS011;60419;48.880;18.036;2023-05-13T13:56:54;3.60;;;1.70;;
72427;SDS011;60419;48.880;18.036;2023-05-13T13:59:39;2.30;;;1.42;;
72427;SDS011;60419;48.880;18.036;2023-05-13T14:02:25;3.42;;;1.65;;
72427;SDS011;60419;48.880;18.036;2023-05-13T14:05:11;2.65;;;1.60;;
72427;SDS011;60419;48.880;18.036;2023-05-13T14:07:57;2.58;;;1.60;;
72427;SDS011;60419;48.880;18.036;2023-05-13T14:10:42;5.43;;;2.20;;
72427;SDS011;60419;48.880;18.036;2023-05-13T14:13:28;4.90;;;2.63;;
72427;SDS011;60419;48.880;18.036;2023-05-13T14:16:14;5.07;;;1.90;;
72427;SDS011;60419;48.880;18.036;2023-05-13T14:18:59;3.60;;;1.50;;
72427;SDS011;60419;48.880;18.036;2023-05-13T14:21:45;5.20;;;2.10;;
72427;SDS011;60419;48.880;18.036;2023-05-13T14:24:30;3.28;;;1.65;;
72427;SDS011;60419;48.880;18.036;2023-05-13T14:27:16;5.20;;;1.80;;
72427;SDS011;60419;48.880;18.036;2023-05-13T14:30:02;3.97;;;1.80;;
72427;SDS011;60419;48.880;18.036;2023-05-13T14:32:49;3.80;;;1.80;;
72427;SDS011;60419;48.880;18.036;2023-05-13T14:35:34;2.80;;;1.80;;
72427;SDS011;60419;48.880;18.036;2023-05-13T14:38:19;4.20;;;1.60;;
72427;SDS011;60419;48.880;18.036;2023-05-13T14:41:05;4.63;;;1.80;;
72427;SDS011;60419;48.880;18.036;2023-05-13T14:43:50;2.92;;;1.70;;
72427;SDS011;60419;48.880;18.036;2023-05-13T14:46:36;3.95;;;1.90;;
72427;SDS011;60419;48.880;18.036;2023-05-13T14:49:22;2.53;;;1.60;;
72427;SDS011;60419;48.880;18.036;2023-05-13T14:52:07;5.47;;;1.90;;
72427;SDS011;60419;48.880;18.036;2023-05-13T14:54:53;2.88;;;1.80;;
72427;SDS011;60419;48.880;18.036;2023-05-13T14:57:38;3.35;;;1.50;;
72427;SDS011;60419;48.880;18.036;2023-05-13T15:00:24;4.25;;;1.80;;
72427;SDS011;60419;48.880;18.036;2023-05-13T15:03:09;3.50;;;1.70;;
72427;SDS011;60419;48.880;18.036;2023-05-13T15:05:55;4.32;;;1.95;;
72427;SDS011;60419;48.880;18.036;2023-05-13T15:08:41;2.65;;;1.65;;
72427;SDS011;60419;48.880;18.036;2023-05-13T15:11:26;3.05;;;1.75;;
72427;SDS011;60419;48.880;18.036;2023-05-13T15:14:12;4.07;;;2.47;;
72427;SDS011;60419;48.880;18.036;2023-05-13T15:16:59;2.95;;;1.70;;
72427;SDS011;60419;48.880;18.036;2023-05-13T15:19:45;3.50;;;1.70;;
72427;SDS011;60419;48.880;18.036;2023-05-13T15:22:31;3.70;;;1.77;;
72427;SDS011;60419;48.880;18.036;2023-05-13T15:25:16;2.92;;;1.80;;
72427;SDS011;60419;48.880;18.036;2023-05-13T15:28:02;6.90;;;1.92;;
72427;SDS011;60419;48.880;18.036;2023-05-13T15:30:47;3.25;;;1.70;;
72427;SDS011;60419;48.880;18.036;2023-05-13T15:33:32;3.22;;;1.60;;
72427;SDS011;60419;48.880;18.036;2023-05-13T15:36:18;3.05;;;1.70;;
72427;SDS011;60419;48.880;18.036;2023-05-13T15:39:03;3.42;;;1.70;;
72427;SDS011;60419;48.880;18.036;2023-05-13T15:41:49;2.83;;;1.88;;
72427;SDS011;60419;48.880;18.036;2023-05-13T15:44:34;5.28;;;1.95;;
72427;SDS011;60419;48.880;18.036;2023-05-13T15:47:20;2.90;;;1.70;;
72427;SDS011;60419;48.880;18.036;2023-05-13T15:50:05;3.10;;;1.77;;
72427;SDS011;60419;48.880;18.036;2023-05-13T15:52:51;3.15;;;1.58;;
72427;SDS011;60419;48.880;18.036;2023-05-13T15:55:38;3.35;;;1.73;;
72427;SDS011;60419;48.880;18.036;2023-05-13T15:58:24;2.85;;;1.65;;
72427;SDS011;60419;48.880;18.036;2023-05-13T16:01:09;4.30;;;2.08;;
72427;SDS011;60419;48.880;18.036;2023-05-13T16:03:55;2.88;;;1.55;;
72427;SDS011;60419;48.880;18.036;2023-05-13T16:06:40;4.22;;;1.88;;
72427;SDS011;60419;48.880;18.036;2023-05-13T16:09:26;4.15;;;1.83;;
72427;SDS011;60419;48.880;18.036;2023-05-13T16:12:11;3.80;;;1.63;;
72427;SDS011;60419;48.880;18.036;2023-05-13T16:14:56;3.25;;;1.75;;
72427;SDS011;60419;48.880;18.036;2023-05-13T16:17:42;3.70;;;1.73;;
72427;SDS011;60419;48.880;18.036;2023-05-13T16:20:27;3.30;;;1.73;;
72427;SDS011;60419;48.880;18.036;2023-05-13T16:23:12;3.67;;;1.60;;
72427;SDS011;60419;48.880;18.036;2023-05-13T16:25:58;3.58;;;1.98;;
72427;SDS011;60419;48.880;18.036;2023-05-13T16:28:43;3.42;;;1.75;;
72427;SDS011;60419;48.880;18.036;2023-05-13T16:31:28;3.97;;;1.80;;
72427;SDS011;60419;48.880;18.036;2023-05-13T16:34:14;4.30;;;1.92;;
72427;SDS011;60419;48.880;18.036;2023-05-13T16:36:59;2.70;;;1.60;;
72427;SDS011;60419;48.880;18.036;2023-05-13T16:39:46;2.65;;;1.70;;
72427;SDS011;60419;48.880;18.036;2023-05-13T16:42:31;4.28;;;1.70;;
72427;SDS011;60419;48.880;18.036;2023-05-13T16:45:16;3.95;;;2.10;;
72427;SDS011;60419;48.880;18.036;2023-05-13T16:48:02;4.07;;;1.80;;